sensor_id;sensor_type;location;lat;lon;timestamp;P1;durP1;ratioP1;P2;durP2;ratioP2
1829;SDS011;914;48.118;11.600;2022-12-16T00:01:54;29.90;;;16.43;;
1829;SDS011;914;48.118;11.600;2022-12-16T00:04:20;27.07;;;15.73;;
1829;SDS011;914;48.118;11.600;2022-12-16T00:06:46;29.83;;;16.07;;
1829;SDS011;914;48.118;11.600;2022-12-16T00:09:12;29.47;;;15.90;;
1829;SDS011;914;48.118;11.600;2022-12-16T00:11:43;25.90;;;14.80;;
1829;SDS011;914;48.118;11.600;2022-12-16T00:14:09;27.60;;;15.80;;
1829;SDS011;914;48.118;11.600;2022-12-16T00:16:35;28.70;;;15.27;;
1829;SDS011;914;48.118;11.600;2022-12-16T00:19:00;25.87;;;14.47;;
1829;SDS011;914;48.118;11.600;2022-12-16T00:21:26;29.00;;;15.03;;
1829;SDS011;914;48.118;11.600;2022-12-16T00:23:55;27.27;;;16.00;;
1829;SDS011;914;48.118;11.600;2022-12-16T00:26:21;26.23;;;16.67;;
1829;SDS011;914;48.118;11.600;2022-12-16T00:28:47;31.57;;;17.43;;
1829;SDS011;914;48.118;11.600;2022-12-16T00:31:13;31.33;;;17.70;;
1829;SDS011;914;48.118;11.600;2022-12-16T00:33:39;27.60;;;17.20;;
1829;SDS011;914;48.118;11.600;2022-12-16T00:36:05;28.50;;;16.43;;
1829;SDS011;914;48.118;11.600;2022-12-16T00:38:34;26.73;;;15.90;;
1829;SDS011;914;48.118;11.600;2022-12-16T00:41:00;30.50;;;17.27;;
1829;SDS011;914;48.118;11.600;2022-12-16T00:43:26;32.00;;;17.83;;
1829;SDS011;914;48.118;11.600;2022-12-16T00:45:52;33.13;;;18.20;;
1829;SDS011;914;48.118;11.600;2022-12-16T00:48:17;29.53;;;17.30;;
1829;SDS011;914;48.118;11.600;2022-12-16T00:50:51;27.40;;;16.33;;
1829;SDS011;914;48.118;11.600;2022-12-16T00:53:19;29.10;;;17.23;;
1829;SDS011;914;48.118;11.600;2022-12-16T00:55:45;27.47;;;16.00;;
1829;SDS011;914;48.118;11.600;2022-12-16T00:58:11;24.50;;;15.37;;
1829;SDS011;914;48.118;11.600;2022-12-16T01:00:38;27.47;;;15.20;;
1829;SDS011;914;48.118;11.600;2022-12-16T01:03:04;29.20;;;16.03;;
1829;SDS011;914;48.118;11.600;2022-12-16T01:05:29;27.17;;;15.30;;
1829;SDS011;914;48.118;11.600;2022-12-16T01:07:55;26.30;;;14.60;;
1829;SDS011;914;48.118;11.600;2022-12-16T01:10:22;25.10;;;14.27;;
1829;SDS011;914;48.118;11.600;2022-12-16T01:12:51;27.77;;;15.73;;
1829;SDS011;914;48.118;11.600;2022-12-16T01:15:17;27.73;;;15.40;;
1829;SDS011;914;48.118;11.600;2022-12-16T01:17:43;26.40;;;15.13;;
1829;SDS011;914;48.118;11.600;2022-12-16T01:20:09;26.83;;;15.77;;
1829;SDS011;914;48.118;11.600;2022-12-16T01:22:38;28.23;;;14.67;;
1829;SDS011;914;48.118;11.600;2022-12-16T01:25:07;26.93;;;14.90;;
1829;SDS011;914;48.118;11.600;2022-12-16T01:27:35;25.73;;;14.73;;
1829;SDS011;914;48.118;11.600;2022-12-16T01:30:04;24.67;;;15.03;;
1829;SDS011;914;48.118;11.600;2022-12-16T01:32:34;24.57;;;14.63;;
1829;SDS011;914;48.118;11.600;2022-12-16T01:35:00;26.80;;;15.40;;
1829;SDS011;914;48.118;11.600;2022-12-16T01:37:26;24.53;;;14.23;;
1829;SDS011;914;48.118;11.600;2022-12-16T01:39:51;25.87;;;15.10;;
1829;SDS011;914;48.118;11.600;2022-12-16T01:42:19;25.70;;;14.20;;
1829;SDS011;914;48.118;11.600;2022-12-16T01:44:47;24.40;;;13.93;;
1829;SDS011;914;48.118;11.600;2022-12-16T01:47:18;25.57;;;13.90;;
1829;SDS011;914;48.118;11.600;2022-12-16T01:49:58;20.80;;;13.50;;
1829;SDS011;914;48.118;11.600;2022-12-16T01:52:34;22.30;;;13.83;;
1829;SDS011;914;48.118;11.600;2022-12-16T01:55:20;26.30;;;14.60;;
1829;SDS011;914;48.118;11.600;2022-12-16T01:57:53;22.83;;;14.13;;
1829;SDS011;914;48.118;11.600;2022-12-16T02:00:26;24.07;;;14.50;;
1829;SDS011;914;48.118;11.600;2022-12-16T02:02:52;23.03;;;12.80;;
1829;SDS011;914;48.118;11.600;2022-12-16T02:05:19;25.53;;;15.13;;
1829;SDS011;914;48.118;11.600;2022-12-16T02:08:05;23.50;;;14.03;;
1829;SDS011;914;48.118;11.600;2022-12-16T02:19:01;21.83;;;14.07;;
1829;SDS011;914;48.118;11.600;2022-12-16T02:24:56;27.03;;;15.43;;
1829;SDS011;914;48.118;11.600;2022-12-16T02:35:56;20.77;;;12.70;;
1829;SDS011;914;48.118;11.600;2022-12-16T02:44:32;19.87;;;14.17;;
1829;SDS011;914;48.118;11.600;2022-12-16T02:47:08;19.33;;;13.67;;
1829;SDS011;914;48.118;11.600;2022-12-16T02:52:13;20.63;;;14.40;;
1829;SDS011;914;48.118;11.600;2022-12-16T02:54:40;19.53;;;14.30;;
1829;SDS011;914;48.118;11.600;2022-12-16T03:00:10;23.00;;;15.13;;
1829;SDS011;914;48.118;11.600;2022-12-16T03:07:55;21.93;;;16.20;;
1829;SDS011;914;48.118;11.600;2022-12-16T03:10:26;24.23;;;16.40;;
1829;SDS011;914;48.118;11.600;2022-12-16T03:12:56;25.03;;;16.63;;
1829;SDS011;914;48.118;11.600;2022-12-16T03:15:28;21.93;;;15.33;;
1829;SDS011;914;48.118;11.600;2022-12-16T03:17:57;22.33;;;15.63;;
1829;SDS011;914;48.118;11.600;2022-12-16T03:20:34;23.93;;;15.97;;
1829;SDS011;914;48.118;11.600;2022-12-16T03:23:09;22.83;;;16.00;;
1829;SDS011;914;48.118;11.600;2022-12-16T03:25:43;26.00;;;16.20;;
1829;SDS011;914;48.118;11.600;2022-12-16T03:28:20;24.17;;;15.97;;
1829;SDS011;914;48.118;11.600;2022-12-16T03:36:51;23.40;;;16.53;;
1829;SDS011;914;48.118;11.600;2022-12-16T03:39:21;24.40;;;16.57;;
1829;SDS011;914;48.118;11.600;2022-12-16T03:41:50;23.80;;;16.30;;
1829;SDS011;914;48.118;11.600;2022-12-16T03:44:21;22.13;;;15.03;;
1829;SDS011;914;48.118;11.600;2022-12-16T03:46:49;22.07;;;15.50;;
1829;SDS011;914;48.118;11.600;2022-12-16T03:49:15;21.93;;;15.50;;
1829;SDS011;914;48.118;11.600;2022-12-16T03:51:41;21.37;;;15.87;;
1829;SDS011;914;48.118;11.600;2022-12-16T03:54:07;21.73;;;16.00;;
1829;SDS011;914;48.118;11.600;2022-12-16T03:56:33;21.63;;;15.80;;
1829;SDS011;914;48.118;11.600;2022-12-16T03:59:01;23.87;;;16.37;;
1829;SDS011;914;48.118;11.600;2022-12-16T04:01:27;23.63;;;16.40;;
1829;SDS011;914;48.118;11.600;2022-12-16T04:03:53;24.37;;;16.73;;
1829;SDS011;914;48.118;11.600;2022-12-16T04:06:18;25.13;;;16.93;;
1829;SDS011;914;48.118;11.600;2022-12-16T04:08:44;25.90;;;17.47;;
1829;SDS011;914;48.118;11.600;2022-12-16T04:11:11;27.13;;;18.30;;
1829;SDS011;914;48.118;11.600;2022-12-16T04:13:56;26.33;;;17.93;;
1829;SDS011;914;48.118;11.600;2022-12-16T04:16:40;28.07;;;17.47;;
1829;SDS011;914;48.118;11.600;2022-12-16T04:19:27;28.07;;;19.30;;
1829;SDS011;914;48.118;11.600;2022-12-16T04:25:33;30.07;;;19.97;;
1829;SDS011;914;48.118;11.600;2022-12-16T04:28:01;29.43;;;18.87;;
1829;SDS011;914;48.118;11.600;2022-12-16T04:30:28;29.90;;;20.27;;
1829;SDS011;914;48.118;11.600;2022-12-16T04:33:04;32.17;;;20.93;;
1829;SDS011;914;48.118;11.600;2022-12-16T04:35:54;31.87;;;21.50;;
1829;SDS011;914;48.118;11.600;2022-12-16T04:38:42;32.67;;;20.93;;
1829;SDS011;914;48.118;11.600;2022-12-16T04:41:26;31.67;;;20.70;;
1829;SDS011;914;48.118;11.600;2022-12-16T04:44:10;31.57;;;21.27;;
1829;SDS011;914;48.118;11.600;2022-12-16T04:46:55;34.03;;;21.73;;
1829;SDS011;914;48.118;11.600;2022-12-16T04:49:39;30.73;;;20.63;;
1829;SDS011;914;48.118;11.600;2022-12-16T04:52:23;35.73;;;21.67;;
1829;SDS011;914;48.118;11.600;2022-12-16T04:55:08;33.17;;;22.03;;
1829;SDS011;914;48.118;11.600;2022-12-16T04:57:56;36.77;;;22.40;;
1829;SDS011;914;48.118;11.600;2022-12-16T05:00:45;37.30;;;23.90;;
1829;SDS011;914;48.118;11.600;2022-12-16T05:03:34;34.67;;;23.10;;
1829;SDS011;914;48.118;11.600;2022-12-16T05:06:21;32.67;;;20.87;;
1829;SDS011;914;48.118;11.600;2022-12-16T05:09:09;34.23;;;21.40;;
1829;SDS011;914;48.118;11.600;2022-12-16T05:11:53;35.80;;;22.70;;
1829;SDS011;914;48.118;11.600;2022-12-16T05:14:37;37.70;;;22.83;;
1829;SDS011;914;48.118;11.600;2022-12-16T05:17:25;39.90;;;24.53;;
1829;SDS011;914;48.118;11.600;2022-12-16T05:20:09;37.50;;;22.80;;
1829;SDS011;914;48.118;11.600;2022-12-16T05:22:54;39.20;;;24.60;;
1829;SDS011;914;48.118;11.600;2022-12-16T05:25:46;35.03;;;22.03;;
1829;SDS011;914;48.118;11.600;2022-12-16T05:28:30;40.47;;;24.60;;
1829;SDS011;914;48.118;11.600;2022-12-16T05:31:15;38.70;;;23.10;;
1829;SDS011;914;48.118;11.600;2022-12-16T05:33:59;37.37;;;23.70;;
1829;SDS011;914;48.118;11.600;2022-12-16T05:36:43;38.70;;;23.27;;
1829;SDS011;914;48.118;11.600;2022-12-16T05:39:29;37.93;;;23.97;;
1829;SDS011;914;48.118;11.600;2022-12-16T05:42:13;39.37;;;23.77;;
1829;SDS011;914;48.118;11.600;2022-12-16T05:44:57;39.20;;;23.57;;
1829;SDS011;914;48.118;11.600;2022-12-16T05:47:42;36.40;;;23.87;;
1829;SDS011;914;48.118;11.600;2022-12-16T05:50:26;42.00;;;24.43;;
1829;SDS011;914;48.118;11.600;2022-12-16T05:53:10;36.13;;;22.17;;
1829;SDS011;914;48.118;11.600;2022-12-16T05:55:57;39.57;;;23.77;;
1829;SDS011;914;48.118;11.600;2022-12-16T05:58:44;39.50;;;24.77;;
1829;SDS011;914;48.118;11.600;2022-12-16T06:01:31;42.73;;;24.73;;
1829;SDS011;914;48.118;11.600;2022-12-16T06:04:15;38.63;;;24.03;;
1829;SDS011;914;48.118;11.600;2022-12-16T06:06:59;39.97;;;24.73;;
1829;SDS011;914;48.118;11.600;2022-12-16T06:09:43;41.87;;;25.57;;
1829;SDS011;914;48.118;11.600;2022-12-16T06:12:28;40.63;;;24.90;;
1829;SDS011;914;48.118;11.600;2022-12-16T06:15:12;44.63;;;26.07;;
1829;SDS011;914;48.118;11.600;2022-12-16T06:17:56;47.07;;;27.67;;
1829;SDS011;914;48.118;11.600;2022-12-16T06:20:43;50.23;;;28.90;;
1829;SDS011;914;48.118;11.600;2022-12-16T06:23:28;41.87;;;25.40;;
1829;SDS011;914;48.118;11.600;2022-12-16T06:26:12;45.93;;;27.07;;
1829;SDS011;914;48.118;11.600;2022-12-16T06:28:56;50.03;;;28.67;;
1829;SDS011;914;48.118;11.600;2022-12-16T06:31:41;50.97;;;29.63;;
1829;SDS011;914;48.118;11.600;2022-12-16T06:34:35;47.20;;;28.90;;
1829;SDS011;914;48.118;11.600;2022-12-16T06:37:20;48.33;;;28.83;;
1829;SDS011;914;48.118;11.600;2022-12-16T06:40:07;48.00;;;29.20;;
1829;SDS011;914;48.118;11.600;2022-12-16T06:42:55;51.53;;;28.90;;
1829;SDS011;914;48.118;11.600;2022-12-16T06:45:43;51.13;;;28.20;;
1829;SDS011;914;48.118;11.600;2022-12-16T06:48:27;50.00;;;29.07;;
1829;SDS011;914;48.118;11.600;2022-12-16T06:51:11;56.43;;;31.27;;
1829;SDS011;914;48.118;11.600;2022-12-16T06:53:57;52.50;;;30.17;;
1829;SDS011;914;48.118;11.600;2022-12-16T06:56:42;53.00;;;30.63;;
1829;SDS011;914;48.118;11.600;2022-12-16T06:59:29;56.87;;;31.27;;
1829;SDS011;914;48.118;11.600;2022-12-16T07:02:13;53.53;;;30.17;;
1829;SDS011;914;48.118;11.600;2022-12-16T07:04:57;58.50;;;32.43;;
1829;SDS011;914;48.118;11.600;2022-12-16T07:07:46;55.40;;;30.70;;
1829;SDS011;914;48.118;11.600;2022-12-16T07:10:33;54.53;;;31.27;;
1829;SDS011;914;48.118;11.600;2022-12-16T07:13:17;56.93;;;32.37;;
1829;SDS011;914;48.118;11.600;2022-12-16T07:16:12;59.40;;;32.63;;
1829;SDS011;914;48.118;11.600;2022-12-16T07:18:56;57.50;;;32.90;;
1829;SDS011;914;48.118;11.600;2022-12-16T07:21:41;56.53;;;31.43;;
1829;SDS011;914;48.118;11.600;2022-12-16T07:24:25;57.57;;;32.87;;
1829;SDS011;914;48.118;11.600;2022-12-16T07:27:09;60.63;;;33.47;;
1829;SDS011;914;48.118;11.600;2022-12-16T07:29:53;59.90;;;32.17;;
1829;SDS011;914;48.118;11.600;2022-12-16T07:32:37;56.43;;;32.20;;
1829;SDS011;914;48.118;11.600;2022-12-16T07:35:22;59.73;;;33.07;;
1829;SDS011;914;48.118;11.600;2022-12-16T07:38:06;53.80;;;31.30;;
1829;SDS011;914;48.118;11.600;2022-12-16T07:40:50;54.63;;;31.00;;
1829;SDS011;914;48.118;11.600;2022-12-16T07:43:34;53.40;;;31.17;;
1829;SDS011;914;48.118;11.600;2022-12-16T07:46:19;53.43;;;31.17;;
1829;SDS011;914;48.118;11.600;2022-12-16T07:49:03;51.93;;;29.10;;
1829;SDS011;914;48.118;11.600;2022-12-16T07:51:47;53.07;;;30.47;;
1829;SDS011;914;48.118;11.600;2022-12-16T07:54:31;55.23;;;32.03;;
1829;SDS011;914;48.118;11.600;2022-12-16T07:57:15;52.00;;;30.07;;
1829;SDS011;914;48.118;11.600;2022-12-16T08:00:00;50.53;;;30.40;;
1829;SDS011;914;48.118;11.600;2022-12-16T08:02:44;57.70;;;31.47;;
1829;SDS011;914;48.118;11.600;2022-12-16T08:05:28;55.43;;;31.03;;
1829;SDS011;914;48.118;11.600;2022-12-16T08:08:13;49.50;;;30.20;;
1829;SDS011;914;48.118;11.600;2022-12-16T08:10:57;51.00;;;30.23;;
1829;SDS011;914;48.118;11.600;2022-12-16T08:13:41;54.37;;;30.47;;
1829;SDS011;914;48.118;11.600;2022-12-16T08:16:25;50.63;;;29.03;;
1829;SDS011;914;48.118;11.600;2022-12-16T08:19:10;52.90;;;29.87;;
1829;SDS011;914;48.118;11.600;2022-12-16T08:21:56;50.83;;;29.27;;
1829;SDS011;914;48.118;11.600;2022-12-16T08:24:41;49.97;;;29.13;;
1829;SDS011;914;48.118;11.600;2022-12-16T08:27:25;50.40;;;28.93;;
1829;SDS011;914;48.118;11.600;2022-12-16T08:30:10;47.10;;;28.13;;
1829;SDS011;914;48.118;11.600;2022-12-16T08:32:54;53.23;;;28.80;;
1829;SDS011;914;48.118;11.600;2022-12-16T08:35:39;55.30;;;30.43;;
1829;SDS011;914;48.118;11.600;2022-12-16T08:38:23;50.40;;;29.83;;
1829;SDS011;914;48.118;11.600;2022-12-16T08:41:07;54.33;;;30.37;;
1829;SDS011;914;48.118;11.600;2022-12-16T08:43:51;46.47;;;28.93;;
1829;SDS011;914;48.118;11.600;2022-12-16T08:46:36;54.00;;;31.27;;
1829;SDS011;914;48.118;11.600;2022-12-16T08:49:20;55.33;;;32.37;;
1829;SDS011;914;48.118;11.600;2022-12-16T08:52:05;54.80;;;31.20;;
1829;SDS011;914;48.118;11.600;2022-12-16T08:54:49;51.33;;;30.07;;
1829;SDS011;914;48.118;11.600;2022-12-16T08:57:33;57.40;;;31.93;;
1829;SDS011;914;48.118;11.600;2022-12-16T09:00:17;53.83;;;31.97;;
1829;SDS011;914;48.118;11.600;2022-12-16T09:03:02;50.20;;;29.10;;
1829;SDS011;914;48.118;11.600;2022-12-16T09:05:46;53.87;;;31.57;;
1829;SDS011;914;48.118;11.600;2022-12-16T09:08:30;51.40;;;29.13;;
1829;SDS011;914;48.118;11.600;2022-12-16T09:11:15;48.70;;;29.57;;
1829;SDS011;914;48.118;11.600;2022-12-16T09:13:59;48.57;;;28.63;;
1829;SDS011;914;48.118;11.600;2022-12-16T09:16:43;45.53;;;28.40;;
1829;SDS011;914;48.118;11.600;2022-12-16T09:19:28;48.83;;;28.53;;
1829;SDS011;914;48.118;11.600;2022-12-16T09:22:12;47.30;;;28.30;;
1829;SDS011;914;48.118;11.600;2022-12-16T09:24:56;44.77;;;28.43;;
1829;SDS011;914;48.118;11.600;2022-12-16T09:27:40;46.97;;;26.40;;
1829;SDS011;914;48.118;11.600;2022-12-16T09:30:25;45.33;;;27.67;;
1829;SDS011;914;48.118;11.600;2022-12-16T09:33:09;46.07;;;28.03;;
1829;SDS011;914;48.118;11.600;2022-12-16T09:35:53;43.07;;;26.10;;
1829;SDS011;914;48.118;11.600;2022-12-16T09:38:37;43.47;;;27.13;;
1829;SDS011;914;48.118;11.600;2022-12-16T09:41:40;46.73;;;28.17;;
1829;SDS011;914;48.118;11.600;2022-12-16T09:50:28;45.10;;;27.33;;
1829;SDS011;914;48.118;11.600;2022-12-16T09:53:16;46.03;;;26.80;;
1829;SDS011;914;48.118;11.600;2022-12-16T09:56:04;41.23;;;25.20;;
1829;SDS011;914;48.118;11.600;2022-12-16T09:58:55;43.87;;;26.20;;
1829;SDS011;914;48.118;11.600;2022-12-16T10:01:42;41.63;;;25.83;;
1829;SDS011;914;48.118;11.600;2022-12-16T10:04:27;43.77;;;25.67;;
1829;SDS011;914;48.118;11.600;2022-12-16T10:07:30;40.33;;;23.87;;
1829;SDS011;914;48.118;11.600;2022-12-16T10:10:55;38.40;;;25.00;;
1829;SDS011;914;48.118;11.600;2022-12-16T10:13:57;43.83;;;26.13;;
1829;SDS011;914;48.118;11.600;2022-12-16T10:17:23;42.07;;;25.77;;
1829;SDS011;914;48.118;11.600;2022-12-16T10:20:29;40.90;;;25.87;;
1829;SDS011;914;48.118;11.600;2022-12-16T10:23:49;42.67;;;25.20;;
1829;SDS011;914;48.118;11.600;2022-12-16T10:26:52;45.63;;;25.80;;
1829;SDS011;914;48.118;11.600;2022-12-16T10:29:42;41.33;;;25.20;;
1829;SDS011;914;48.118;11.600;2022-12-16T10:32:31;40.40;;;25.63;;
1829;SDS011;914;48.118;11.600;2022-12-16T10:35:21;45.80;;;27.73;;
1829;SDS011;914;48.118;11.600;2022-12-16T10:38:14;43.40;;;25.83;;
1829;SDS011;914;48.118;11.600;2022-12-16T10:41:06;43.93;;;26.07;;
1829;SDS011;914;48.118;11.600;2022-12-16T10:43:51;42.03;;;25.83;;
1829;SDS011;914;48.118;11.600;2022-12-16T10:46:38;46.67;;;28.83;;
1829;SDS011;914;48.118;11.600;2022-12-16T10:49:22;48.23;;;28.40;;
1829;SDS011;914;48.118;11.600;2022-12-16T10:52:08;47.50;;;28.40;;
1829;SDS011;914;48.118;11.600;2022-12-16T10:58:05;44.43;;;26.57;;
1829;SDS011;914;48.118;11.600;2022-12-16T11:00:54;46.10;;;27.13;;
1829;SDS011;914;48.118;11.600;2022-12-16T11:03:38;45.27;;;26.57;;
1829;SDS011;914;48.118;11.600;2022-12-16T11:06:39;48.47;;;28.63;;
1829;SDS011;914;48.118;11.600;2022-12-16T11:09:34;46.07;;;28.67;;
1829;SDS011;914;48.118;11.600;2022-12-16T11:12:22;45.47;;;26.93;;
1829;SDS011;914;48.118;11.600;2022-12-16T11:18:20;53.53;;;29.03;;
1829;SDS011;914;48.118;11.600;2022-12-16T11:27:00;49.77;;;28.43;;
1829;SDS011;914;48.118;11.600;2022-12-16T11:29:49;49.63;;;28.40;;
1829;SDS011;914;48.118;11.600;2022-12-16T11:32:33;44.33;;;27.20;;
1829;SDS011;914;48.118;11.600;2022-12-16T11:35:21;48.40;;;29.23;;
1829;SDS011;914;48.118;11.600;2022-12-16T11:38:54;47.97;;;27.63;;
1829;SDS011;914;48.118;11.600;2022-12-16T11:41:35;43.87;;;26.47;;
1829;SDS011;914;48.118;11.600;2022-12-16T11:44:34;46.00;;;26.43;;
1829;SDS011;914;48.118;11.600;2022-12-16T11:50:25;45.03;;;26.83;;
1829;SDS011;914;48.118;11.600;2022-12-16T11:56:37;44.27;;;26.40;;
1829;SDS011;914;48.118;11.600;2022-12-16T11:59:38;41.73;;;25.03;;
1829;SDS011;914;48.118;11.600;2022-12-16T12:05:20;40.37;;;25.47;;
1829;SDS011;914;48.118;11.600;2022-12-16T12:11:30;41.97;;;26.13;;
1829;SDS011;914;48.118;11.600;2022-12-16T12:14:27;41.07;;;24.73;;
1829;SDS011;914;48.118;11.600;2022-12-16T12:17:34;44.43;;;26.50;;
1829;SDS011;914;48.118;11.600;2022-12-16T12:27:04;46.90;;;27.30;;
1829;SDS011;914;48.118;11.600;2022-12-16T12:30:06;47.37;;;28.03;;
1829;SDS011;914;48.118;11.600;2022-12-16T12:36:20;48.10;;;27.57;;
1829;SDS011;914;48.118;11.600;2022-12-16T12:39:23;43.10;;;26.83;;
1829;SDS011;914;48.118;11.600;2022-12-16T12:45:50;40.17;;;24.67;;
1829;SDS011;914;48.118;11.600;2022-12-16T12:58:08;40.33;;;25.10;;
1829;SDS011;914;48.118;11.600;2022-12-16T13:00:54;36.37;;;24.20;;
1829;SDS011;914;48.118;11.600;2022-12-16T13:03:58;36.83;;;23.93;;
1829;SDS011;914;48.118;11.600;2022-12-16T13:06:47;38.80;;;25.17;;
1829;SDS011;914;48.118;11.600;2022-12-16T13:09:33;39.17;;;25.07;;
1829;SDS011;914;48.118;11.600;2022-12-16T13:12:21;40.13;;;25.50;;
1829;SDS011;914;48.118;11.600;2022-12-16T13:15:10;40.30;;;24.40;;
1829;SDS011;914;48.118;11.600;2022-12-16T13:20:45;39.60;;;23.97;;
1829;SDS011;914;48.118;11.600;2022-12-16T13:26:19;38.97;;;24.67;;
1829;SDS011;914;48.118;11.600;2022-12-16T13:29:22;38.17;;;24.27;;
1829;SDS011;914;48.118;11.600;2022-12-16T13:32:19;38.67;;;24.07;;
1829;SDS011;914;48.118;11.600;2022-12-16T13:40:57;33.07;;;20.03;;
1829;SDS011;914;48.118;11.600;2022-12-16T13:43:45;39.40;;;24.63;;
1829;SDS011;914;48.118;11.600;2022-12-16T13:46:43;38.53;;;24.53;;
1829;SDS011;914;48.118;11.600;2022-12-16T13:53:06;38.57;;;23.43;;
1829;SDS011;914;48.118;11.600;2022-12-16T14:01:32;33.47;;;21.87;;
1829;SDS011;914;48.118;11.600;2022-12-16T14:04:32;38.10;;;23.77;;
1829;SDS011;914;48.118;11.600;2022-12-16T14:07:21;32.63;;;20.70;;
1829;SDS011;914;48.118;11.600;2022-12-16T14:10:22;35.63;;;22.37;;
1829;SDS011;914;48.118;11.600;2022-12-16T14:25:28;37.90;;;21.43;;
1829;SDS011;914;48.118;11.600;2022-12-16T14:31:36;34.97;;;21.50;;
1829;SDS011;914;48.118;11.600;2022-12-16T14:34:23;39.50;;;23.33;;
1829;SDS011;914;48.118;11.600;2022-12-16T14:37:19;39.60;;;24.53;;
1829;SDS011;914;48.118;11.600;2022-12-16T14:40:21;37.50;;;23.83;;
1829;SDS011;914;48.118;11.600;2022-12-16T14:43:17;39.83;;;24.37;;
1829;SDS011;914;48.118;11.600;2022-12-16T14:46:04;39.70;;;23.73;;
1829;SDS011;914;48.118;11.600;2022-12-16T14:48:49;43.77;;;24.63;;
1829;SDS011;914;48.118;11.600;2022-12-16T14:51:35;41.77;;;24.80;;
1829;SDS011;914;48.118;11.600;2022-12-16T14:57:22;38.93;;;24.20;;
1829;SDS011;914;48.118;11.600;2022-12-16T15:03:09;42.50;;;23.07;;
1829;SDS011;914;48.118;11.600;2022-12-16T15:06:17;36.97;;;23.70;;
1829;SDS011;914;48.118;11.600;2022-12-16T15:09:11;41.00;;;26.13;;
1829;SDS011;914;48.118;11.600;2022-12-16T15:12:05;42.70;;;26.27;;
1829;SDS011;914;48.118;11.600;2022-12-16T15:14:52;40.67;;;24.47;;
1829;SDS011;914;48.118;11.600;2022-12-16T15:17:43;44.30;;;26.23;;
1829;SDS011;914;48.118;11.600;2022-12-16T15:20:47;43.23;;;24.27;;
1829;SDS011;914;48.118;11.600;2022-12-16T15:23:40;45.97;;;25.60;;
1829;SDS011;914;48.118;11.600;2022-12-16T15:26:27;39.63;;;24.77;;
1829;SDS011;914;48.118;11.600;2022-12-16T15:29:33;41.53;;;25.20;;
1829;SDS011;914;48.118;11.600;2022-12-16T15:32:36;41.60;;;24.03;;
1829;SDS011;914;48.118;11.600;2022-12-16T15:35:34;37.00;;;22.83;;
1829;SDS011;914;48.118;11.600;2022-12-16T15:38:27;40.67;;;23.97;;
1829;SDS011;914;48.118;11.600;2022-12-16T15:41:19;36.60;;;21.43;;
1829;SDS011;914;48.118;11.600;2022-12-16T15:44:19;33.63;;;20.80;;
1829;SDS011;914;48.118;11.600;2022-12-16T15:47:05;35.27;;;22.50;;
1829;SDS011;914;48.118;11.600;2022-12-16T15:50:02;32.17;;;20.43;;
1829;SDS011;914;48.118;11.600;2022-12-16T15:56:32;28.40;;;17.97;;
1829;SDS011;914;48.118;11.600;2022-12-16T15:59:25;24.53;;;15.50;;
1829;SDS011;914;48.118;11.600;2022-12-16T16:02:18;29.00;;;17.43;;
1829;SDS011;914;48.118;11.600;2022-12-16T16:05:11;29.47;;;18.30;;
1829;SDS011;914;48.118;11.600;2022-12-16T16:07:58;28.87;;;18.17;;
1829;SDS011;914;48.118;11.600;2022-12-16T16:10:43;28.63;;;18.57;;
1829;SDS011;914;48.118;11.600;2022-12-16T16:13:27;33.77;;;21.23;;
1829;SDS011;914;48.118;11.600;2022-12-16T16:16:11;31.33;;;19.70;;
1829;SDS011;914;48.118;11.600;2022-12-16T16:18:57;37.00;;;21.50;;
1829;SDS011;914;48.118;11.600;2022-12-16T16:21:42;35.60;;;21.80;;
1829;SDS011;914;48.118;11.600;2022-12-16T16:24:26;32.93;;;20.90;;
1829;SDS011;914;48.118;11.600;2022-12-16T16:27:11;31.90;;;20.77;;
1829;SDS011;914;48.118;11.600;2022-12-16T16:29:57;32.27;;;19.93;;
1829;SDS011;914;48.118;11.600;2022-12-16T16:32:42;30.33;;;19.97;;
1829;SDS011;914;48.118;11.600;2022-12-16T16:35:26;32.07;;;20.73;;
1829;SDS011;914;48.118;11.600;2022-12-16T16:38:10;30.07;;;19.87;;
1829;SDS011;914;48.118;11.600;2022-12-16T16:40:56;33.17;;;20.40;;
1829;SDS011;914;48.118;11.600;2022-12-16T16:43:40;33.63;;;20.50;;
1829;SDS011;914;48.118;11.600;2022-12-16T16:46:30;29.57;;;19.47;;
1829;SDS011;914;48.118;11.600;2022-12-16T16:49:20;33.97;;;21.50;;
1829;SDS011;914;48.118;11.600;2022-12-16T16:52:14;32.30;;;20.83;;
1829;SDS011;914;48.118;11.600;2022-12-16T16:55:00;33.17;;;21.13;;
1829;SDS011;914;48.118;11.600;2022-12-16T16:57:44;32.17;;;20.77;;
1829;SDS011;914;48.118;11.600;2022-12-16T17:00:29;34.00;;;21.53;;
1829;SDS011;914;48.118;11.600;2022-12-16T17:03:13;35.07;;;21.63;;
1829;SDS011;914;48.118;11.600;2022-12-16T17:05:57;34.13;;;20.93;;
1829;SDS011;914;48.118;11.600;2022-12-16T17:08:42;34.27;;;21.93;;
1829;SDS011;914;48.118;11.600;2022-12-16T17:11:26;35.33;;;21.50;;
1829;SDS011;914;48.118;11.600;2022-12-16T17:14:12;38.63;;;22.40;;
1829;SDS011;914;48.118;11.600;2022-12-16T17:16:59;36.23;;;22.30;;
1829;SDS011;914;48.118;11.600;2022-12-16T17:19:43;37.83;;;21.73;;
1829;SDS011;914;48.118;11.600;2022-12-16T17:22:28;35.37;;;23.23;;
1829;SDS011;914;48.118;11.600;2022-12-16T17:25:13;34.77;;;21.27;;
1829;SDS011;914;48.118;11.600;2022-12-16T17:27:57;36.67;;;22.47;;
1829;SDS011;914;48.118;11.600;2022-12-16T17:30:43;38.30;;;22.13;;
1829;SDS011;914;48.118;11.600;2022-12-16T17:33:27;34.93;;;20.83;;
1829;SDS011;914;48.118;11.600;2022-12-16T17:36:12;38.40;;;21.50;;
1829;SDS011;914;48.118;11.600;2022-12-16T17:38:58;37.07;;;21.73;;
1829;SDS011;914;48.118;11.600;2022-12-16T17:41:43;35.80;;;21.03;;
1829;SDS011;914;48.118;11.600;2022-12-16T17:44:27;36.97;;;21.73;;
1829;SDS011;914;48.118;11.600;2022-12-16T17:47:11;33.70;;;20.00;;
1829;SDS011;914;48.118;11.600;2022-12-16T17:49:56;36.27;;;21.80;;
1829;SDS011;914;48.118;11.600;2022-12-16T17:52:40;34.73;;;19.47;;
1829;SDS011;914;48.118;11.600;2022-12-16T17:55:24;33.10;;;20.60;;
1829;SDS011;914;48.118;11.600;2022-12-16T17:58:08;38.17;;;22.33;;
1829;SDS011;914;48.118;11.600;2022-12-16T18:00:52;33.03;;;19.23;;
1829;SDS011;914;48.118;11.600;2022-12-16T18:03:42;37.90;;;20.47;;
1829;SDS011;914;48.118;11.600;2022-12-16T18:06:26;34.70;;;20.07;;
1829;SDS011;914;48.118;11.600;2022-12-16T18:09:10;40.20;;;21.60;;
1829;SDS011;914;48.118;11.600;2022-12-16T18:11:55;38.67;;;22.60;;
1829;SDS011;914;48.118;11.600;2022-12-16T18:14:40;38.40;;;22.00;;
1829;SDS011;914;48.118;11.600;2022-12-16T18:17:24;37.20;;;18.23;;
1829;SDS011;914;48.118;11.600;2022-12-16T18:20:08;42.07;;;22.63;;
1829;SDS011;914;48.118;11.600;2022-12-16T18:22:53;38.87;;;21.83;;
1829;SDS011;914;48.118;11.600;2022-12-16T18:25:37;39.77;;;22.70;;
1829;SDS011;914;48.118;11.600;2022-12-16T18:28:22;39.77;;;22.70;;
1829;SDS011;914;48.118;11.600;2022-12-16T18:31:07;49.03;;;22.40;;
1829;SDS011;914;48.118;11.600;2022-12-16T18:33:51;44.20;;;23.90;;
1829;SDS011;914;48.118;11.600;2022-12-16T18:36:36;41.67;;;22.43;;
1829;SDS011;914;48.118;11.600;2022-12-16T18:39:20;44.43;;;24.03;;
1829;SDS011;914;48.118;11.600;2022-12-16T18:42:04;44.20;;;23.60;;
1829;SDS011;914;48.118;11.600;2022-12-16T18:44:49;45.13;;;23.77;;
1829;SDS011;914;48.118;11.600;2022-12-16T18:47:33;44.03;;;23.97;;
1829;SDS011;914;48.118;11.600;2022-12-16T18:50:18;42.43;;;22.43;;
1829;SDS011;914;48.118;11.600;2022-12-16T18:53:02;43.73;;;23.43;;